createdAt,value
2022-09-22T16:01:47.304Z,112.25
2022-09-22T16:03:22.632Z,145.50
2022-09-22T16:04:55.642Z,130.75
2022-09-22T16:06:27.335Z,133.50
2022-09-22T16:07:59.755Z,143.25
2022-09-22T16:09:31.423Z,134.75
2022-09-22T16:11:03.414Z,133.75
2022-09-22T16:12:35.350Z,146.75
2022-09-22T16:14:07.239Z,160.75
2022-09-22T16:15:39.459Z,199.25
2022-09-22T16:17:11.215Z,272.00
2022-09-22T16:18:43.943Z,231.67
2022-09-22T16:20:16.642Z,231.00
2022-09-22T16:21:54.156Z,227.33
2022-09-22T16:23:25.973Z,233.67
2022-09-22T16:24:57.759Z,233.33
2022-09-22T16:26:29.579Z,222.00
2022-09-22T16:28:01.349Z,248.67
2022-09-22T16:29:37.319Z,213.75
2022-09-22T16:31:09.028Z,222.67
2022-09-22T16:32:40.783Z,209.00
2022-09-22T16:34:12.514Z,214.75
2022-09-22T16:35:44.173Z,204.00
2022-09-22T16:37:15.824Z,249.33
2022-09-22T16:38:47.790Z,268.33
2022-09-22T16:40:20.033Z,228.67
2022-09-22T16:41:51.746Z,224.00
2022-09-22T16:43:23.406Z,204.67
2022-09-22T16:44:55.062Z,457.60
2022-09-22T16:46:28.057Z,446.80
2022-09-22T16:47:59.822Z,420.75
2022-09-22T16:49:33.438Z,417.67
2022-09-22T16:51:05.487Z,415.50
2022-09-22T16:52:37.517Z,373.00
2022-09-22T16:54:12.319Z,283.50
2022-09-22T16:55:51.460Z,268.00
2022-09-22T16:57:23.117Z,252.33
2022-09-22T16:58:55.472Z,224.33
2022-09-22T17:00:27.241Z,244.00
2022-09-22T17:01:58.971Z,233.00
2022-09-22T17:03:31.391Z,230.67
2022-09-22T17:05:03.756Z,201.75
2022-09-22T17:06:36.085Z,216.00
2022-09-22T17:08:08.554Z,211.33
2022-09-22T17:09:40.260Z,229.00
2022-09-22T17:11:13.609Z,274.33
2022-09-22T17:12:45.196Z,255.67
2022-09-22T17:14:24.378Z,253.33
2022-09-22T17:16:22.056Z,259.00
2022-09-22T17:17:53.745Z,241.67
2022-09-22T17:19:26.686Z,205.33
2022-09-22T17:20:58.673Z,238.67
2022-09-22T17:22:30.289Z,206.00
2022-09-22T17:24:02.390Z,227.67
2022-09-22T17:25:34.118Z,202.67
2022-09-22T17:27:06.165Z,209.50
2022-09-22T17:28:38.737Z,206.25
2022-09-22T17:30:10.915Z,200.75
2022-09-22T17:31:43.374Z,213.00
2022-09-22T17:33:16.920Z,205.00
2022-09-22T17:34:48.579Z,206.50
2022-09-22T17:36:23.896Z,218.67
2022-09-22T17:37:55.648Z,200.25
2022-09-22T17:39:28.031Z,206.75
2022-09-22T17:41:10.177Z,197.25
2022-09-22T17:42:41.880Z,221.00
2022-09-22T17:44:14.730Z,360.25
2022-09-22T17:45:47.671Z,565.60
2022-09-22T17:47:37.666Z,419.00
2022-09-22T17:49:27.970Z,277.75
2022-09-22T17:51:18.135Z,243.00
2022-09-22T17:53:08.318Z,249.33
2022-09-22T17:54:59.273Z,244.00
2022-09-22T17:56:30.894Z,238.33
2022-09-22T17:58:02.660Z,215.25
2022-09-22T17:59:34.826Z,228.33
2022-09-22T18:01:06.532Z,300.00
2022-09-22T18:02:38.965Z,215.33
2022-09-22T18:04:10.682Z,230.33
2022-09-22T18:05:42.476Z,226.00
2022-09-22T18:07:17.973Z,240.00
2022-09-22T18:08:49.696Z,224.33
2022-09-22T18:10:21.326Z,206.33
2022-09-22T18:11:52.994Z,222.67
2022-09-22T18:13:24.725Z,223.00
2022-09-22T18:14:56.471Z,245.33
2022-09-22T18:16:33.156Z,219.33
2022-09-22T18:18:04.886Z,237.00
2022-09-22T18:19:36.808Z,217.67
2022-09-22T18:21:09.596Z,234.00
2022-09-22T18:22:41.625Z,192.67
2022-09-22T18:24:19.623Z,233.67
2022-09-22T18:25:51.313Z,216.33
2022-09-22T18:27:29.850Z,229.33
2022-09-22T18:29:01.902Z,265.67
2022-09-22T18:30:34.283Z,218.33
2022-09-22T18:32:05.976Z,300.50
2022-09-22T18:33:37.615Z,263.00
2022-09-22T18:35:09.684Z,285.50
2022-09-22T18:36:41.631Z,258.67
2022-09-22T18:38:14.079Z,259.00
2022-09-22T18:39:45.795Z,251.00
2022-09-22T18:41:19.782Z,241.67
2022-09-22T18:42:51.567Z,228.67
2022-09-22T18:44:23.807Z,228.00
2022-09-22T18:45:55.415Z,205.75
2022-09-22T18:47:27.120Z,239.00
2022-09-22T18:49:04.457Z,227.00
2022-09-22T18:50:36.332Z,226.67
2022-09-22T18:52:08.103Z,202.33
2022-09-22T18:53:39.777Z,233.00
2022-09-22T18:55:11.727Z,223.33
2022-09-22T18:56:47.234Z,223.67
2022-09-22T18:58:18.916Z,234.33
2022-09-22T18:59:51.215Z,252.67
2022-09-22T19:01:23.911Z,225.67
2022-09-22T19:02:56.211Z,225.00
2022-09-22T19:04:28.150Z,207.33
2022-09-22T19:05:59.754Z,225.33
2022-09-22T19:07:43.612Z,216.33
2022-09-22T19:09:15.929Z,234.67
2022-09-22T19:10:48.402Z,226.67
2022-09-22T19:12:22.818Z,212.67
2022-09-22T19:13:54.561Z,203.75
2022-09-22T19:15:26.710Z,218.50
2022-09-22T19:17:00.480Z,206.25
2022-09-22T19:18:32.431Z,211.67
2022-09-22T19:20:04.547Z,208.67
2022-09-22T19:21:38.804Z,227.75
2022-09-22T19:23:11.470Z,199.50
2022-09-22T19:24:46.308Z,194.75
2022-09-22T19:26:18.579Z,249.33
2022-09-22T19:27:52.533Z,225.33
2022-09-22T19:29:24.324Z,249.67
2022-09-22T19:30:58.114Z,274.50
2022-09-22T19:32:29.859Z,264.67
2022-09-22T19:34:01.919Z,244.00
2022-09-22T19:35:38.411Z,246.33
2022-09-22T19:37:10.839Z,230.67
2022-09-22T19:38:42.551Z,239.33
2022-09-22T19:40:18.571Z,249.67
2022-09-22T19:41:50.991Z,204.75
2022-09-22T19:43:24.412Z,227.33
2022-09-22T19:44:56.084Z,232.00
2022-09-22T19:46:27.967Z,232.67
2022-09-22T19:47:59.636Z,235.33
2022-09-22T19:49:31.839Z,329.00
2022-09-22T19:51:03.767Z,530.00
2022-09-22T19:52:36.267Z,396.50
2022-09-22T19:54:08.123Z,485.00
2022-09-22T19:55:39.853Z,406.00
2022-09-22T19:57:11.646Z,429.80
2022-09-22T19:58:44.858Z,342.75
2022-09-22T20:00:26.519Z,297.50
2022-09-22T20:01:58.386Z,303.75
2022-09-22T20:03:30.217Z,294.50
2022-09-22T20:05:01.811Z,280.25
2022-09-22T20:06:33.940Z,326.75
2022-09-22T20:08:07.599Z,321.25
2022-09-22T20:09:39.247Z,372.50
2022-09-22T20:11:25.526Z,366.50
2022-09-22T20:12:58.123Z,347.75
2022-09-22T20:14:31.611Z,362.00
2022-09-22T20:16:03.379Z,354.50
2022-09-22T20:17:35.110Z,304.75
2022-09-22T20:19:06.935Z,316.75
2022-09-22T20:20:38.676Z,379.25
2022-09-22T20:22:25.479Z,283.75
2022-09-22T20:23:57.235Z,272.25
2022-09-22T20:25:30.674Z,381.75
2022-09-22T20:27:02.314Z,321.25
2022-09-22T20:28:34.144Z,376.00
2022-09-22T20:30:07.126Z,523.60
2022-09-22T20:31:39.059Z,567.20
2022-09-22T20:33:18.889Z,500.80
2022-09-22T20:34:53.713Z,411.50
2022-09-22T20:36:25.518Z,395.33
2022-09-22T20:37:57.557Z,401.25
2022-09-22T20:39:29.248Z,380.75
2022-09-22T20:41:01.196Z,419.75
2022-09-22T20:42:32.837Z,387.67
2022-09-22T20:44:04.439Z,351.50
2022-09-22T20:45:36.128Z,373.00
2022-09-22T20:47:15.838Z,384.50
2022-09-22T20:48:47.547Z,353.25
2022-09-22T20:50:21.162Z,312.00
2022-09-22T20:51:52.848Z,380.00
2022-09-22T20:53:24.488Z,388.50
2022-09-22T20:54:56.116Z,305.50
2022-09-22T20:56:27.778Z,275.00
2022-09-22T20:58:02.508Z,421.75
2022-09-22T20:59:34.198Z,336.25
2022-09-22T21:01:06.886Z,375.75
2022-09-22T21:02:38.852Z,296.25
2022-09-22T21:04:16.053Z,299.50
2022-09-22T21:05:48.659Z,379.25
2022-09-22T21:07:20.513Z,356.00
2022-09-22T21:09:10.621Z,375.00
2022-09-22T21:10:42.249Z,559.40
2022-09-22T21:12:13.913Z,493.40
2022-09-22T21:13:45.572Z,514.25
2022-09-22T21:15:17.280Z,461.20
2022-09-22T21:16:50.862Z,472.50
2022-09-22T21:18:26.477Z,465.00
2022-09-22T21:19:58.196Z,435.00
2022-09-22T21:21:31.162Z,410.67
2022-09-22T21:23:02.802Z,418.75
2022-09-22T21:24:34.465Z,397.50
2022-09-22T21:26:07.749Z,399.25
2022-09-22T21:27:39.342Z,391.00
2022-09-22T21:29:10.981Z,421.00
2022-09-22T21:30:42.683Z,428.75
2022-09-22T21:32:14.394Z,370.50
2022-09-22T21:33:47.280Z,404.75
2022-09-22T21:35:18.996Z,395.75
2022-09-22T21:36:51.123Z,428.00
2022-09-22T21:38:23.397Z,374.75
2022-09-22T21:39:55.011Z,407.75
2022-09-22T21:41:27.971Z,388.00
2022-09-22T21:42:59.690Z,371.00
2022-09-22T21:44:31.326Z,400.25
2022-09-22T21:46:06.677Z,233.00
2022-09-22T21:47:38.321Z,312.25
2022-09-22T21:49:10.687Z,378.00
2022-09-22T21:50:42.300Z,478.20
2022-09-22T21:52:13.977Z,730.00
2022-09-22T21:53:46.307Z,615.20
2022-09-22T21:55:18.668Z,445.00
2022-09-22T21:56:50.753Z,415.50
2022-09-22T21:58:22.465Z,371.00
2022-09-22T21:59:56.740Z,361.00
2022-09-22T22:01:32.968Z,339.00
2022-09-22T22:03:22.974Z,351.75
2022-09-22T22:04:55.682Z,333.00
2022-09-22T22:06:31.531Z,289.00
2022-09-22T22:08:03.232Z,329.50
2022-09-22T22:09:34.991Z,309.50
2022-09-22T22:11:11.864Z,321.00
2022-09-22T22:12:44.998Z,303.75
2022-09-22T22:14:19.113Z,285.50
2022-09-22T22:15:50.798Z,332.25
2022-09-22T22:17:22.452Z,286.50
2022-09-22T22:18:54.102Z,288.00
2022-09-22T22:20:25.728Z,302.00
2022-09-22T22:21:57.337Z,321.75
2022-09-22T22:23:32.050Z,293.00
2022-09-22T22:25:06.940Z,279.75
2022-09-22T22:26:38.618Z,275.00
2022-09-22T22:28:10.211Z,288.25
2022-09-22T22:29:42.129Z,283.33
2022-09-22T22:31:15.728Z,279.00
2022-09-22T22:32:47.467Z,295.50
2022-09-22T22:34:21.018Z,284.50
